createdAt,value
2023-04-07T00:00:57.050Z,2.56
2023-04-07T00:03:43.940Z,2.52
2023-04-07T00:06:30.042Z,2.55
2023-04-07T00:09:15.774Z,2.50
2023-04-07T00:12:02.710Z,2.50
2023-04-07T00:14:49.058Z,2.46
2023-04-07T00:17:36.341Z,2.42
2023-04-07T00:20:22.136Z,2.39
2023-04-07T00:23:07.691Z,2.44
2023-04-07T00:25:53.527Z,2.47
2023-04-07T00:28:39.372Z,2.70
2023-04-07T00:31:25.828Z,2.85
2023-04-07T00:34:13.277Z,2.81
2023-04-07T00:37:00.780Z,2.71
2023-04-07T00:39:46.912Z,2.69
2023-04-07T00:42:34.153Z,2.63
2023-04-07T00:45:20.344Z,2.56
2023-04-07T00:48:06.325Z,2.51
2023-04-07T00:50:53.633Z,2.45
2023-04-07T00:53:39.545Z,2.37
2023-04-07T00:56:25.892Z,2.37
2023-04-07T00:59:11.612Z,2.32
2023-04-07T01:01:59.937Z,2.42
2023-04-07T01:04:47.583Z,2.43
2023-04-07T01:07:35.945Z,2.39
2023-04-07T01:10:28.520Z,2.38
2023-04-07T01:13:24.038Z,2.31
2023-04-07T01:16:14.607Z,2.32
2023-04-07T01:19:07.714Z,2.20
2023-04-07T01:21:54.003Z,2.17
2023-04-07T01:24:43.526Z,2.11
2023-04-07T01:27:33.073Z,2.07
2023-04-07T01:30:20.472Z,1.99
2023-04-07T01:33:06.377Z,1.98
2023-04-07T01:35:52.501Z,1.94
2023-04-07T01:38:38.164Z,1.93
2023-04-07T01:41:24.374Z,1.92
2023-04-07T01:44:10.384Z,1.84
2023-04-07T01:46:57.549Z,1.82
2023-04-07T01:49:43.497Z,1.77
2023-04-07T01:52:29.156Z,1.78
2023-04-07T01:55:15.046Z,1.70
2023-04-07T01:58:10.397Z,1.72
2023-04-07T02:00:59.637Z,1.71
2023-04-07T02:03:48.145Z,1.66
2023-04-07T02:06:35.957Z,1.62
2023-04-07T02:09:22.468Z,1.58
2023-04-07T02:12:09.074Z,1.55
2023-04-07T02:14:58.836Z,1.55
2023-04-07T02:17:47.495Z,1.52
2023-04-07T02:20:34.749Z,1.46
2023-04-07T02:23:20.416Z,1.42
2023-04-07T02:26:06.592Z,1.37
2023-04-07T02:28:52.212Z,1.35
2023-04-07T02:31:38.650Z,1.33
2023-04-07T02:34:24.464Z,1.29
2023-04-07T02:37:13.207Z,1.28
2023-04-07T02:39:59.562Z,1.25
2023-04-07T02:42:45.366Z,1.19
2023-04-07T02:45:31.168Z,1.17
2023-04-07T02:48:16.916Z,1.13
2023-04-07T02:51:02.846Z,1.12
2023-04-07T02:53:49.963Z,1.06
2023-04-07T02:56:36.374Z,1.03
2023-04-07T02:59:22.520Z,0.98
2023-04-07T03:02:08.645Z,0.96
2023-04-07T03:04:55.906Z,0.99
2023-04-07T03:07:46.408Z,0.98
2023-04-07T03:10:34.467Z,0.97
2023-04-07T03:13:21.535Z,0.97
2023-04-07T03:16:07.655Z,0.94
2023-04-07T03:19:03.394Z,0.90
2023-04-07T03:21:53.200Z,0.87
2023-04-07T03:24:41.059Z,0.87
2023-04-07T03:27:28.315Z,0.86
2023-04-07T03:30:14.702Z,0.84
2023-04-07T03:33:02.497Z,0.83
2023-04-07T03:35:49.968Z,0.80
2023-04-07T03:38:36.170Z,0.78
2023-04-07T03:41:24.121Z,0.77
2023-04-07T03:44:11.378Z,0.76
2023-04-07T03:46:57.898Z,0.76
2023-04-07T03:49:45.194Z,0.72
2023-04-07T03:52:30.904Z,0.69
2023-04-07T03:55:24.224Z,0.65
2023-04-07T03:58:13.782Z,0.63
2023-04-07T04:01:01.195Z,0.59
2023-04-07T04:03:47.871Z,0.57
2023-04-07T04:06:42.175Z,0.56
2023-04-07T04:09:37.002Z,0.49
2023-04-07T04:12:23.453Z,0.48
2023-04-07T04:15:24.440Z,0.46
2023-04-07T04:18:12.046Z,0.45
2023-04-07T04:20:58.652Z,0.41
2023-04-07T04:23:45.540Z,0.42
2023-04-07T04:26:31.654Z,0.38
2023-04-07T04:29:23.908Z,0.36
2023-04-07T04:32:10.883Z,0.37
2023-04-07T04:34:58.229Z,0.34
2023-04-07T04:37:44.913Z,0.34
2023-04-07T04:40:32.842Z,0.35
2023-04-07T04:43:19.741Z,0.35
2023-04-07T04:46:06.149Z,0.32
2023-04-07T04:48:57.903Z,0.32
2023-04-07T04:51:46.664Z,0.33
2023-04-07T04:54:36.046Z,0.32
2023-04-07T04:57:22.373Z,0.32
2023-04-07T05:00:09.866Z,0.32
2023-04-07T05:02:58.244Z,0.30
2023-04-07T05:05:48.173Z,0.29
2023-04-07T05:08:37.137Z,0.28
2023-04-07T05:11:23.922Z,0.27
2023-04-07T05:14:12.078Z,0.29
2023-04-07T05:17:03.030Z,0.26
2023-04-07T05:19:48.919Z,0.26
2023-04-07T05:22:44.819Z,0.24
2023-04-07T05:25:34.698Z,0.27
2023-04-07T05:28:24.831Z,0.28
2023-04-07T05:31:12.857Z,0.25
2023-04-07T05:33:58.995Z,0.27
2023-04-07T05:36:49.366Z,0.28
2023-04-07T05:39:35.740Z,0.32
2023-04-07T05:42:24.886Z,0.33
2023-04-07T05:45:14.298Z,0.33
2023-04-07T05:48:04.379Z,0.36
2023-04-07T05:50:58.525Z,0.41
2023-04-07T05:53:44.786Z,0.48
2023-04-07T05:56:31.303Z,0.58
2023-04-07T05:59:18.643Z,0.77
2023-04-07T06:02:06.005Z,0.99
2023-04-07T06:04:52.085Z,1.12
2023-04-07T06:07:39.312Z,1.29
2023-04-07T06:10:25.152Z,1.48
2023-04-07T06:13:11.336Z,1.56
2023-04-07T06:15:58.603Z,1.73
2023-04-07T06:18:44.534Z,1.83
2023-04-07T06:21:30.631Z,1.93
2023-04-07T06:24:16.630Z,2.19
2023-04-07T06:27:03.750Z,2.36
2023-04-07T06:29:49.557Z,2.50
2023-04-07T06:32:37.241Z,2.72
2023-04-07T06:35:23.204Z,2.95
2023-04-07T06:38:11.431Z,3.16
2023-04-07T06:40:57.554Z,3.29
2023-04-07T06:43:43.488Z,3.49
2023-04-07T06:46:29.430Z,3.70
2023-04-07T06:49:17.282Z,3.86
2023-04-07T06:52:03.450Z,4.07
2023-04-07T06:54:49.584Z,4.28
2023-04-07T06:57:35.691Z,4.42
2023-04-07T07:00:22.872Z,4.61
2023-04-07T07:03:09.090Z,4.75
2023-04-07T07:05:57.324Z,4.88
2023-04-07T07:08:43.317Z,5.06
2023-04-07T07:11:29.774Z,5.05
2023-04-07T07:14:15.835Z,5.24
2023-04-07T07:17:01.961Z,5.28
2023-04-07T07:19:47.685Z,5.39
2023-04-07T07:22:34.860Z,5.54
2023-04-07T07:25:20.688Z,5.67
2023-04-07T07:28:06.717Z,5.75
2023-04-07T07:30:52.497Z,5.99
2023-04-07T07:33:40.373Z,6.05
2023-04-07T07:36:26.662Z,6.27
2023-04-07T07:39:14.627Z,6.45
2023-04-07T07:42:01.452Z,6.56
2023-04-07T07:44:47.069Z,6.74
2023-04-07T07:47:32.965Z,7.00
2023-04-07T07:50:18.755Z,7.28
2023-04-07T07:53:04.725Z,7.43
2023-04-07T07:55:52.640Z,7.58
2023-04-07T07:58:38.723Z,7.70
2023-04-07T08:01:24.586Z,8.02
2023-04-07T08:04:11.041Z,8.21
2023-04-07T08:06:57.109Z,8.42
2023-04-07T08:09:42.981Z,8.47
2023-04-07T08:12:30.208Z,8.85
2023-04-07T08:15:16.010Z,8.78
2023-04-07T08:18:04.433Z,9.10
2023-04-07T08:20:51.481Z,9.12
2023-04-07T08:23:37.570Z,9.77
2023-04-07T08:26:23.528Z,10.09
2023-04-07T08:29:10.807Z,10.44
2023-04-07T08:31:56.696Z,10.83
2023-04-07T08:34:42.503Z,10.68
2023-04-07T08:37:28.361Z,11.36
2023-04-07T08:40:14.064Z,11.11
2023-04-07T08:42:59.837Z,11.44
2023-04-07T08:45:47.276Z,11.88
2023-04-07T08:48:34.050Z,12.24
2023-04-07T08:51:22.366Z,12.76
2023-04-07T08:54:09.836Z,12.96
2023-04-07T08:56:55.892Z,13.04
2023-04-07T08:59:44.602Z,12.93
2023-04-07T09:02:32.003Z,13.49
2023-04-07T09:05:18.196Z,14.05
2023-04-07T09:08:04.064Z,13.91
2023-04-07T09:10:49.894Z,14.55
2023-04-07T09:13:36.221Z,13.56
2023-04-07T09:16:21.981Z,14.01
2023-04-07T09:19:09.973Z,14.70
2023-04-07T09:21:56.061Z,14.06
2023-04-07T09:24:42.347Z,14.10
2023-04-07T09:27:28.580Z,14.19
2023-04-07T09:30:15.617Z,14.11
2023-04-07T09:33:01.804Z,14.55
2023-04-07T09:35:54.057Z,14.41
2023-04-07T09:38:40.601Z,14.48
2023-04-07T09:41:28.500Z,14.72
2023-04-07T09:44:14.364Z,15.11
2023-04-07T09:47:00.583Z,15.68
2023-04-07T09:49:50.204Z,15.65
2023-04-07T09:52:53.350Z,15.23
2023-04-07T09:55:39.559Z,15.80
2023-04-07T09:58:25.775Z,15.93
2023-04-07T10:01:12.273Z,16.11
2023-04-07T10:03:58.419Z,16.33
2023-04-07T10:06:45.492Z,16.26
2023-04-07T10:09:32.834Z,16.22
2023-04-07T10:12:19.347Z,16.57
2023-04-07T10:15:05.732Z,16.25
2023-04-07T10:17:52.035Z,15.89
2023-04-07T10:20:37.871Z,16.19
2023-04-07T10:23:26.235Z,16.15
2023-04-07T10:26:13.707Z,16.50
2023-04-07T10:29:00.573Z,16.32
2023-04-07T10:31:46.549Z,17.00
2023-04-07T10:34:51.346Z,16.92
2023-04-07T10:37:37.318Z,17.44
2023-04-07T10:40:29.936Z,16.79
2023-04-07T10:43:37.172Z,17.57
2023-04-07T10:46:23.317Z,17.31
2023-04-07T10:49:09.348Z,17.77
2023-04-07T10:52:10.689Z,17.17
2023-04-07T10:55:29.911Z,17.77
2023-04-07T10:58:17.927Z,17.95
2023-04-07T11:01:22.607Z,17.69
2023-04-07T11:04:09.008Z,17.33
2023-04-07T11:06:55.554Z,17.57
2023-04-07T11:09:42.436Z,17.14
2023-04-07T11:12:28.440Z,17.03
2023-04-07T11:15:19.149Z,17.72
2023-04-07T11:18:08.711Z,17.52
2023-04-07T11:20:55.619Z,18.08
2023-04-07T11:23:42.769Z,18.40
2023-04-07T11:26:28.537Z,18.55
2023-04-07T11:29:14.243Z,18.60
2023-04-07T11:32:02.228Z,19.22
2023-04-07T11:34:48.160Z,18.56
2023-04-07T11:37:33.917Z,17.69
2023-04-07T11:40:32.398Z,18.23
2023-04-07T11:43:19.056Z,18.39
2023-04-07T11:46:05.983Z,18.50
2023-04-07T11:48:53.219Z,18.48
2023-04-07T11:51:38.942Z,18.83
2023-04-07T11:54:24.795Z,18.75
2023-04-07T11:57:12.465Z,18.53
2023-04-07T12:00:06.470Z,18.67
2023-04-07T12:02:53.221Z,18.38
2023-04-07T12:05:44.380Z,18.22
2023-04-07T12:08:40.813Z,18.51
2023-04-07T12:11:26.585Z,18.83
2023-04-07T12:14:12.705Z,18.63
2023-04-07T12:16:58.950Z,18.75
2023-04-07T12:19:44.853Z,18.89
2023-04-07T12:22:31.952Z,19.27
2023-04-07T12:25:17.785Z,18.59
2023-04-07T12:28:03.454Z,18.90
2023-04-07T12:30:49.428Z,18.61
2023-04-07T12:33:35.370Z,18.70
2023-04-07T12:36:21.800Z,19.01
2023-04-07T12:39:09.071Z,19.20
2023-04-07T12:41:54.728Z,19.13
2023-04-07T12:44:40.541Z,18.43
2023-04-07T12:47:27.178Z,18.65
2023-04-07T12:50:13.050Z,18.69
2023-04-07T12:52:59.823Z,19.06
2023-04-07T12:55:50.120Z,18.92
2023-04-07T12:58:36.657Z,18.88
2023-04-07T13:01:22.885Z,17.75
2023-04-07T13:04:09.720Z,17.03
2023-04-07T13:06:55.910Z,17.31
2023-04-07T13:09:43.421Z,17.42
2023-04-07T13:12:31.233Z,17.92
2023-04-07T13:15:17.092Z,18.50
2023-04-07T13:18:02.862Z,18.28
2023-04-07T13:21:03.620Z,18.41
2023-04-07T13:23:55.847Z,18.50
2023-04-07T13:26:42.339Z,18.11
2023-04-07T13:29:29.827Z,18.18
2023-04-07T13:32:16.866Z,17.76
2023-04-07T13:35:02.703Z,17.52
2023-04-07T13:37:48.736Z,17.64
2023-04-07T13:40:34.452Z,17.83
2023-04-07T13:43:20.157Z,18.12
2023-04-07T13:46:17.179Z,17.52
2023-04-07T13:49:07.495Z,17.06
2023-04-07T13:51:53.498Z,16.73
2023-04-07T13:54:39.466Z,16.01
2023-04-07T13:57:25.285Z,16.16
2023-04-07T14:00:11.922Z,15.89
2023-04-07T14:02:59.406Z,15.66
2023-04-07T14:05:45.481Z,15.90
2023-04-07T14:08:31.070Z,15.67
2023-04-07T14:11:17.564Z,15.75
2023-04-07T14:14:03.502Z,15.69
2023-04-07T14:16:51.741Z,15.65
2023-04-07T14:19:39.231Z,15.60
2023-04-07T14:22:25.389Z,15.32
2023-04-07T14:25:11.465Z,14.88
2023-04-07T14:27:57.435Z,14.87
2023-04-07T14:30:43.467Z,14.63
2023-04-07T14:33:29.264Z,14.61
2023-04-07T14:36:17.539Z,14.65
2023-04-07T14:39:03.835Z,14.20
2023-04-07T14:41:49.733Z,14.21
2023-04-07T14:44:36.161Z,13.79
2023-04-07T14:47:22.185Z,13.83
2023-04-07T14:50:08.375Z,13.74
2023-04-07T14:52:55.645Z,13.72
2023-04-07T14:55:42.658Z,13.67
2023-04-07T14:58:28.577Z,13.43
2023-04-07T15:01:14.503Z,13.15
2023-04-07T15:04:01.296Z,12.95
2023-04-07T15:06:47.599Z,13.09
2023-04-07T15:09:34.676Z,13.11
2023-04-07T15:12:20.518Z,13.02
2023-04-07T15:15:06.930Z,13.02
2023-04-07T15:17:52.649Z,12.72
2023-04-07T15:20:38.755Z,12.75
2023-04-07T15:23:25.202Z,12.70
2023-04-07T15:26:12.939Z,12.73
2023-04-07T15:28:59.090Z,12.63
2023-04-07T15:31:45.296Z,12.67
2023-04-07T15:34:31.242Z,12.65
2023-04-07T15:37:18.744Z,12.49
2023-04-07T15:40:04.968Z,12.56
2023-04-07T15:42:52.221Z,12.52
2023-04-07T15:45:40.957Z,12.29
2023-04-07T15:48:27.097Z,12.16
2023-04-07T15:51:13.730Z,12.11
2023-04-07T15:53:59.752Z,12.09
2023-04-07T15:56:45.899Z,11.96
2023-04-07T15:59:32.974Z,12.00
2023-04-07T16:02:19.246Z,12.04
2023-04-07T16:05:05.866Z,11.89
2023-04-07T16:07:51.698Z,11.83
2023-04-07T16:10:37.445Z,11.83
2023-04-07T16:13:23.194Z,11.80
2023-04-07T16:16:10.517Z,11.73
2023-04-07T16:18:56.446Z,11.71
2023-04-07T16:21:42.618Z,11.58
2023-04-07T16:24:28.801Z,11.60
2023-04-07T16:27:14.682Z,11.56
2023-04-07T16:30:00.322Z,11.50
2023-04-07T16:32:47.721Z,11.48
2023-04-07T16:35:34.065Z,11.40
2023-04-07T16:38:20.081Z,11.30
2023-04-07T16:41:07.708Z,11.27
2023-04-07T16:43:53.800Z,11.23
2023-04-07T16:46:39.640Z,11.19
2023-04-07T16:49:26.818Z,11.12
2023-04-07T16:52:12.733Z,11.13
2023-04-07T16:54:58.576Z,11.05
2023-04-07T16:57:44.464Z,10.98
2023-04-07T17:00:30.555Z,10.95
2023-04-07T17:03:16.694Z,10.86
2023-04-07T17:06:05.431Z,10.87
2023-04-07T17:08:51.171Z,10.78
2023-04-07T17:11:37.075Z,10.70
2023-04-07T17:14:22.847Z,10.65
2023-04-07T17:17:08.963Z,10.60
2023-04-07T17:19:57.169Z,10.54
2023-04-07T17:22:44.550Z,10.42
2023-04-07T17:25:30.462Z,10.42
2023-04-07T17:28:16.301Z,10.39
2023-04-07T17:31:02.848Z,10.29
2023-04-07T17:33:49.034Z,10.19
2023-04-07T17:36:35.683Z,10.11
2023-04-07T17:39:22.951Z,10.09
2023-04-07T17:42:10.828Z,9.99
2023-04-07T17:44:57.642Z,9.95
2023-04-07T17:47:46.295Z,9.75
2023-04-07T17:50:32.823Z,9.67
2023-04-07T17:53:19.492Z,9.58
2023-04-07T17:56:07.082Z,9.50
2023-04-07T17:58:53.245Z,9.41
2023-04-07T18:01:39.753Z,9.34
2023-04-07T18:04:26.250Z,9.25
2023-04-07T18:07:13.412Z,9.16
2023-04-07T18:09:59.404Z,9.12
2023-04-07T18:12:46.480Z,8.97
2023-04-07T18:15:32.415Z,8.87
2023-04-07T18:18:19.344Z,8.84
2023-04-07T18:21:05.783Z,8.64
2023-04-07T18:23:51.679Z,8.56
2023-04-07T18:26:37.567Z,8.46
2023-04-07T18:29:24.729Z,8.35
2023-04-07T18:32:10.629Z,8.28
2023-04-07T18:34:56.455Z,8.22
2023-04-07T18:37:44.114Z,8.13
2023-04-07T18:40:32.841Z,8.00
2023-04-07T18:43:18.456Z,7.92
2023-04-07T18:46:05.950Z,7.82
2023-04-07T18:48:51.851Z,7.76
2023-04-07T18:51:37.706Z,7.68
2023-04-07T18:54:24.187Z,7.57
2023-04-07T18:57:10.309Z,7.46
2023-04-07T18:59:57.005Z,7.42
2023-04-07T19:02:45.430Z,7.41
2023-04-07T19:05:31.808Z,7.34
2023-04-07T19:08:17.816Z,7.20
2023-04-07T19:11:03.612Z,7.13
2023-04-07T19:13:50.080Z,7.10
2023-04-07T19:16:36.420Z,7.06
2023-04-07T19:19:23.780Z,6.90
2023-04-07T19:22:09.557Z,6.88
2023-04-07T19:24:56.231Z,6.85
2023-04-07T19:27:42.157Z,6.77
2023-04-07T19:30:27.974Z,6.76
2023-04-07T19:33:14.438Z,6.63
2023-04-07T19:36:02.224Z,6.54
2023-04-07T19:38:48.187Z,6.46
2023-04-07T19:41:34.052Z,6.39
2023-04-07T19:44:20.011Z,6.36
2023-04-07T19:47:06.912Z,6.28
2023-04-07T19:49:52.764Z,6.17
2023-04-07T19:52:40.168Z,6.10
2023-04-07T19:55:26.019Z,6.05
2023-04-07T19:58:11.675Z,6.00
2023-04-07T20:00:57.372Z,5.98
2023-04-07T20:03:43.601Z,5.93
2023-04-07T20:06:29.654Z,5.89
2023-04-07T20:09:17.389Z,5.84
2023-04-07T20:12:03.810Z,5.81
2023-04-07T20:14:49.890Z,5.81
2023-04-07T20:17:36.790Z,5.76
2023-04-07T20:20:23.554Z,5.76
2023-04-07T20:23:09.628Z,5.80
2023-04-07T20:25:57.000Z,5.79
2023-04-07T20:28:42.687Z,5.81
2023-04-07T20:31:29.155Z,5.83
2023-04-07T20:34:15.143Z,5.85
2023-04-07T20:37:01.483Z,5.90
2023-04-07T20:39:47.355Z,5.91
2023-04-07T20:42:34.508Z,5.90
2023-04-07T20:45:22.061Z,5.93
2023-04-07T20:48:08.229Z,5.97
2023-04-07T20:50:54.368Z,6.00
2023-04-07T20:53:40.600Z,6.04
2023-04-07T20:56:26.490Z,6.05
2023-04-07T20:59:13.757Z,6.05
2023-04-07T21:01:59.804Z,6.06
2023-04-07T21:04:46.115Z,6.10
2023-04-07T21:07:31.864Z,6.01
2023-04-07T21:10:17.898Z,6.07
2023-04-07T21:13:03.878Z,6.07
2023-04-07T21:15:51.013Z,6.06
2023-04-07T21:18:37.147Z,6.02
2023-04-07T21:21:23.129Z,6.05
2023-04-07T21:24:08.944Z,6.06
2023-04-07T21:26:59.340Z,6.11
2023-04-07T21:29:45.339Z,6.05
2023-04-07T21:32:32.933Z,6.02
2023-04-07T21:35:19.616Z,6.01
2023-04-07T21:38:06.019Z,6.02
2023-04-07T21:40:51.866Z,5.99
2023-04-07T21:43:37.795Z,5.86
2023-04-07T21:46:23.724Z,5.91
2023-04-07T21:49:10.865Z,5.97
2023-04-07T21:51:57.032Z,5.98
2023-04-07T21:54:43.230Z,5.87
2023-04-07T21:57:29.077Z,5.96
2023-04-07T22:00:16.373Z,5.94
2023-04-07T22:03:03.750Z,5.93
2023-04-07T22:05:51.494Z,5.91
2023-04-07T22:08:37.235Z,5.91
2023-04-07T22:11:22.970Z,5.93
2023-04-07T22:14:09.252Z,5.96
2023-04-07T22:16:55.478Z,5.98
2023-04-07T22:19:41.776Z,6.01
2023-04-07T22:22:28.912Z,5.94
2023-04-07T22:25:14.837Z,5.90
2023-04-07T22:28:00.724Z,5.89
2023-04-07T22:30:46.917Z,5.81
2023-04-07T22:33:32.709Z,5.93
2023-04-07T22:36:18.506Z,5.90
2023-04-07T22:39:05.821Z,5.94
2023-04-07T22:41:51.857Z,5.96
2023-04-07T22:44:37.572Z,5.91
2023-04-07T22:47:23.601Z,5.75
2023-04-07T22:50:10.454Z,5.84
2023-04-07T22:52:56.238Z,5.80
2023-04-07T22:55:43.508Z,5.74
2023-04-07T22:58:29.417Z,5.72
2023-04-07T23:01:15.560Z,5.73
2023-04-07T23:04:01.991Z,5.65
2023-04-07T23:06:48.066Z,5.75
2023-04-07T23:09:33.963Z,5.78
2023-04-07T23:12:21.129Z,5.76
2023-04-07T23:15:07.677Z,5.77
2023-04-07T23:17:53.453Z,5.80
2023-04-07T23:20:39.625Z,5.79
2023-04-07T23:23:25.712Z,5.86
2023-04-07T23:26:11.870Z,5.82
2023-04-07T23:28:58.949Z,5.76
2023-04-07T23:31:44.838Z,5.81
2023-04-07T23:34:30.628Z,5.80
2023-04-07T23:37:16.690Z,5.83
2023-04-07T23:40:02.459Z,5.85
2023-04-07T23:42:48.212Z,5.86
2023-04-07T23:45:36.388Z,5.84
2023-04-07T23:48:26.223Z,5.86
2023-04-07T23:51:12.840Z,5.85
2023-04-07T23:54:02.818Z,5.85
2023-04-07T23:56:52.639Z,5.88
2023-04-07T23:59:44.132Z,5.93
